createdAt,value
2022-12-23T00:02:39.523Z,7.90
2022-12-23T00:07:32.169Z,8.10
2022-12-23T00:12:42.638Z,8.20
2022-12-23T00:17:36.468Z,8.30
2022-12-23T00:22:48.246Z,8.40
2022-12-23T00:27:41.519Z,8.40
2022-12-23T00:32:33.655Z,8.40
2022-12-23T00:37:25.566Z,8.40
2022-12-23T00:42:36.023Z,8.40
2022-12-23T00:47:46.824Z,8.40
2022-12-23T00:52:38.764Z,8.30
2022-12-23T00:57:30.745Z,8.30
2022-12-23T01:02:58.078Z,8.30
2022-12-23T01:07:52.469Z,8.30
2022-12-23T01:12:44.493Z,8.40
2022-12-23T01:17:36.459Z,8.40
2022-12-23T01:22:29.638Z,8.40
2022-12-23T01:27:21.625Z,8.40
2022-12-23T01:32:13.694Z,8.50
2022-12-23T01:37:06.120Z,8.50
2022-12-23T01:42:17.887Z,8.50
2022-12-23T01:47:33.390Z,8.60
2022-12-23T01:52:27.286Z,8.60
2022-12-23T01:57:19.732Z,8.50
2022-12-23T02:02:30.510Z,8.60
2022-12-23T02:07:41.870Z,8.50
2022-12-23T02:13:04.079Z,8.50
2022-12-23T02:18:05.329Z,8.60
2022-12-23T02:23:25.195Z,8.60
2022-12-23T02:28:54.739Z,8.60
2022-12-23T02:34:01.388Z,8.60
2022-12-23T02:39:10.013Z,8.50
2022-12-23T02:44:37.164Z,8.60
2022-12-23T02:49:36.466Z,8.50
2022-12-23T02:54:36.331Z,8.50
2022-12-23T02:59:35.632Z,8.50
2022-12-23T03:04:27.543Z,8.50
2022-12-23T03:09:43.005Z,8.50
2022-12-23T03:15:02.551Z,8.50
2022-12-23T03:20:06.968Z,8.50
2022-12-23T03:25:32.946Z,8.60
2022-12-23T03:30:25.380Z,8.70
2022-12-23T03:35:23.793Z,8.70
2022-12-23T03:40:22.676Z,8.70
2022-12-23T03:45:40.666Z,8.80
2022-12-23T03:50:38.603Z,8.90
2022-12-23T03:55:45.480Z,9.10
2022-12-23T04:00:45.930Z,9.30
2022-12-23T04:05:40.758Z,9.40
2022-12-23T04:10:32.783Z,9.50
2022-12-23T04:15:26.737Z,9.70
2022-12-23T04:20:19.004Z,9.70
2022-12-23T04:25:12.242Z,9.80
2022-12-23T04:30:08.868Z,9.80
2022-12-23T04:35:00.826Z,9.90
2022-12-23T04:39:52.878Z,10.00
2022-12-23T04:44:44.829Z,9.90
2022-12-23T04:49:37.033Z,9.80
2022-12-23T04:54:29.064Z,9.80
2022-12-23T04:59:21.054Z,9.70
2022-12-23T05:04:13.670Z,9.60
2022-12-23T05:09:06.548Z,9.50
2022-12-23T05:13:58.708Z,9.50
2022-12-23T05:18:50.732Z,9.60
2022-12-23T05:23:42.833Z,9.60
2022-12-23T05:28:34.861Z,9.60
2022-12-23T05:33:27.905Z,9.80
2022-12-23T05:38:20.452Z,9.90
2022-12-23T05:43:12.430Z,10.10
2022-12-23T05:48:04.478Z,10.10
2022-12-23T05:52:57.917Z,10.20
2022-12-23T05:57:50.169Z,10.30
2022-12-23T06:02:42.625Z,10.20
2022-12-23T06:07:35.731Z,10.20
2022-12-23T06:12:27.746Z,10.20
2022-12-23T06:17:19.664Z,10.30
2022-12-23T06:22:11.643Z,10.20
2022-12-23T06:27:04.245Z,10.30
2022-12-23T06:31:56.309Z,10.30
2022-12-23T06:36:48.490Z,10.30
2022-12-23T06:41:40.669Z,10.40
2022-12-23T06:46:34.072Z,10.30
2022-12-23T06:51:26.005Z,10.40
2022-12-23T06:56:19.022Z,10.40
2022-12-23T07:01:11.121Z,10.40
2022-12-23T07:06:03.637Z,10.30
2022-12-23T07:11:03.464Z,10.20
2022-12-23T07:15:56.110Z,10.10
2022-12-23T07:20:48.080Z,10.00
2022-12-23T07:25:40.264Z,10.00
2022-12-23T07:30:33.446Z,10.00
2022-12-23T07:35:25.650Z,9.90
2022-12-23T07:40:17.791Z,9.90
2022-12-23T07:45:10.227Z,9.90
2022-12-23T07:50:02.307Z,9.90
2022-12-23T07:54:55.499Z,10.00
2022-12-23T07:59:47.516Z,9.90
2022-12-23T08:04:45.610Z,10.00
2022-12-23T08:09:38.153Z,10.00
2022-12-23T08:14:30.128Z,10.00
2022-12-23T08:19:22.133Z,10.00
2022-12-23T08:24:14.311Z,10.00
2022-12-23T08:29:06.245Z,10.10
2022-12-23T08:33:59.874Z,10.20
2022-12-23T08:38:53.807Z,10.30
2022-12-23T08:43:46.185Z,10.20
2022-12-23T08:48:41.484Z,10.30
2022-12-23T08:53:39.181Z,10.30
2022-12-23T08:58:31.908Z,10.40
2022-12-23T09:03:23.939Z,10.60
2022-12-23T09:08:15.997Z,10.70
2022-12-23T09:13:08.003Z,10.80
2022-12-23T09:17:59.969Z,10.80
2022-12-23T09:22:51.928Z,10.80
2022-12-23T09:27:43.930Z,10.70
2022-12-23T09:32:36.219Z,10.70
2022-12-23T09:37:28.248Z,10.80
2022-12-23T09:42:26.652Z,10.80
2022-12-23T09:47:22.065Z,11.00
2022-12-23T09:52:20.138Z,11.00
2022-12-23T09:57:28.280Z,11.10
2022-12-23T10:02:42.390Z,11.20
2022-12-23T10:07:43.673Z,11.40
2022-12-23T10:12:43.782Z,11.50
2022-12-23T10:17:41.798Z,11.60
2022-12-23T10:22:42.987Z,11.70
2022-12-23T10:27:39.471Z,11.70
2022-12-23T10:32:53.264Z,11.70
2022-12-23T10:38:00.654Z,11.90
2022-12-23T10:43:09.458Z,12.10
2022-12-23T10:48:20.195Z,12.10
2022-12-23T10:53:17.277Z,12.10
2022-12-23T10:58:14.782Z,12.10
2022-12-23T11:03:20.804Z,12.10
2022-12-23T11:08:13.281Z,12.10
2022-12-23T11:13:05.313Z,12.20
2022-12-23T11:18:14.019Z,12.00
2022-12-23T11:23:30.011Z,12.00
2022-12-23T11:28:22.194Z,12.00
2022-12-23T11:33:25.815Z,12.10
2022-12-23T11:38:17.821Z,12.30
2022-12-23T11:43:15.889Z,12.60
2022-12-23T11:48:27.716Z,12.90
2022-12-23T11:53:24.961Z,13.10
2022-12-23T11:58:21.385Z,13.30
2022-12-23T12:03:22.178Z,13.40
2022-12-23T12:08:20.417Z,13.40
2022-12-23T12:13:49.046Z,13.20
2022-12-23T12:18:43.884Z,13.10
2022-12-23T12:23:44.650Z,13.10
2022-12-23T12:28:44.257Z,13.20
2022-12-23T12:33:43.985Z,13.40
2022-12-23T12:38:38.590Z,13.60
2022-12-23T12:43:32.012Z,13.60
2022-12-23T12:48:34.865Z,13.60
2022-12-23T12:53:30.375Z,13.50
2022-12-23T12:58:24.343Z,13.20
2022-12-23T13:03:33.321Z,13.00
2022-12-23T13:08:28.394Z,12.80
2022-12-23T13:13:31.688Z,12.70
2022-12-23T13:18:55.631Z,12.70
2022-12-23T13:24:28.219Z,12.60
2022-12-23T13:29:35.193Z,12.40
2022-12-23T13:34:33.154Z,12.30
2022-12-23T13:40:00.550Z,12.20
2022-12-23T13:44:54.229Z,12.00
2022-12-23T13:50:16.770Z,12.00
2022-12-23T13:55:24.610Z,12.00
2022-12-23T14:00:19.543Z,11.90
2022-12-23T14:05:29.333Z,11.80
2022-12-23T14:10:24.252Z,11.80
2022-12-23T14:15:47.362Z,11.90
2022-12-23T14:20:44.443Z,11.80
2022-12-23T14:26:02.575Z,11.80
2022-12-23T14:30:56.020Z,11.80
2022-12-23T14:35:48.369Z,11.70
2022-12-23T14:40:43.065Z,11.60
2022-12-23T14:45:36.732Z,11.60
2022-12-23T14:50:38.154Z,11.50
2022-12-23T14:55:31.591Z,11.40
2022-12-23T15:00:25.852Z,11.30
2022-12-23T15:05:23.513Z,11.30
2022-12-23T15:10:18.976Z,11.20
2022-12-23T15:15:17.571Z,11.10
2022-12-23T15:20:25.388Z,11.00
2022-12-23T15:25:27.036Z,11.00
2022-12-23T15:30:19.516Z,10.90
2022-12-23T15:35:37.662Z,10.90
2022-12-23T15:40:36.058Z,10.80
2022-12-23T15:45:37.887Z,10.80
2022-12-23T15:50:31.167Z,10.70
2022-12-23T15:55:31.148Z,10.80
2022-12-23T16:00:27.232Z,10.80
2022-12-23T16:05:29.799Z,10.70
2022-12-23T16:10:22.197Z,10.70
2022-12-23T16:15:30.395Z,10.70
2022-12-23T16:20:40.097Z,10.70
2022-12-23T16:25:33.609Z,10.60
2022-12-23T16:30:37.110Z,10.70
2022-12-23T16:35:36.703Z,10.70
2022-12-23T16:40:28.979Z,10.70
2022-12-23T16:45:21.078Z,10.60
2022-12-23T16:50:15.126Z,10.60
2022-12-23T16:55:17.871Z,10.50
2022-12-23T17:00:19.460Z,10.50
2022-12-23T17:05:20.709Z,10.40
2022-12-23T17:10:14.463Z,10.40
2022-12-23T17:15:07.586Z,10.40
2022-12-23T17:20:01.940Z,10.40
2022-12-23T17:24:53.941Z,10.50
2022-12-23T17:29:46.095Z,10.50
2022-12-23T17:34:38.122Z,10.40
2022-12-23T17:39:30.034Z,10.30
2022-12-23T17:44:22.093Z,10.30
2022-12-23T17:49:14.288Z,10.30
2022-12-23T17:54:06.590Z,10.30
2022-12-23T17:58:58.649Z,10.40
2022-12-23T18:03:50.751Z,10.30
2022-12-23T18:08:43.100Z,10.30
2022-12-23T18:13:35.667Z,10.30
2022-12-23T18:18:35.616Z,10.40
2022-12-23T18:23:37.278Z,10.40
2022-12-23T18:28:29.295Z,10.30
2022-12-23T18:33:21.512Z,10.30
2022-12-23T18:38:14.168Z,10.10
2022-12-23T18:43:06.856Z,10.10
2022-12-23T18:47:59.748Z,10.00
2022-12-23T18:52:52.224Z,10.10
2022-12-23T18:57:44.607Z,10.00
2022-12-23T19:02:36.684Z,10.00
2022-12-23T19:07:28.712Z,9.90
2022-12-23T19:12:20.737Z,9.90
2022-12-23T19:17:12.761Z,9.90
2022-12-23T19:22:04.688Z,9.90
2022-12-23T19:26:56.628Z,9.90
2022-12-23T19:31:48.550Z,9.70
2022-12-23T19:36:40.726Z,9.60
2022-12-23T19:41:33.641Z,9.50
2022-12-23T19:46:25.660Z,9.50
2022-12-23T19:51:17.767Z,9.50
2022-12-23T19:56:17.219Z,9.40
2022-12-23T20:01:16.380Z,9.40
2022-12-23T20:06:13.871Z,9.40
2022-12-23T20:11:08.229Z,9.40
2022-12-23T20:16:00.409Z,9.40
2022-12-23T20:20:52.488Z,9.40
2022-12-23T20:25:45.742Z,9.50
2022-12-23T20:30:37.800Z,9.50
2022-12-23T20:35:32.741Z,9.50
2022-12-23T20:40:24.699Z,9.50
2022-12-23T20:45:16.727Z,9.50
2022-12-23T20:50:09.198Z,9.50
2022-12-23T20:55:01.751Z,9.50
2022-12-23T20:59:53.772Z,9.50
2022-12-23T21:04:46.081Z,9.50
2022-12-23T21:09:38.090Z,9.40
2022-12-23T21:14:30.025Z,9.60
2022-12-23T21:19:24.652Z,9.50
2022-12-23T21:24:17.345Z,9.50
2022-12-23T21:29:10.903Z,9.60
2022-12-23T21:34:03.261Z,9.70
2022-12-23T21:38:55.369Z,9.80
2022-12-23T21:43:48.664Z,9.70
2022-12-23T21:48:41.619Z,9.70
2022-12-23T21:53:36.746Z,9.60
2022-12-23T21:58:28.949Z,9.60
2022-12-23T22:03:23.799Z,9.80
2022-12-23T22:08:15.732Z,9.70
2022-12-23T22:13:07.815Z,9.70
2022-12-23T22:18:02.296Z,9.70
2022-12-23T22:22:55.740Z,9.80
2022-12-23T22:27:47.737Z,9.80
2022-12-23T22:32:42.532Z,9.70
2022-12-23T22:37:34.796Z,9.70
2022-12-23T22:42:26.779Z,9.70
2022-12-23T22:47:18.959Z,9.70
2022-12-23T22:52:10.982Z,9.70
2022-12-23T22:57:03.022Z,9.70
2022-12-23T23:01:55.083Z,9.80
2022-12-23T23:06:47.055Z,9.90
2022-12-23T23:11:39.684Z,10.20
2022-12-23T23:16:32.253Z,10.30
2022-12-23T23:21:24.839Z,10.30
2022-12-23T23:26:17.382Z,10.20
2022-12-23T23:31:40.352Z,10.20
2022-12-23T23:36:23.683Z,10.10
2022-12-23T23:41:20.687Z,10.20
2022-12-23T23:46:15.138Z,10.20
2022-12-23T23:51:07.440Z,10.20
2022-12-23T23:56:10.035Z,10.20
